Time;durP1;ratioP1;P1;durP2;ratioP2;P2;SDS_P1;SDS_P2;PMS_P1;PMS_P2;Temp;Humidity;BMP_temperature;BMP_pressure;BME280_temperature;BME280_humidity;BME280_pressure;Samples;Min_cycle;Max_cycle;Signal;HPM_P1;HPM_P2
2019/12/25 00:00:01;;;;;;;5.05;2.45;;;;;;;4.96;100;95046.72;;;;
2019/12/25 00:01:03;;;;;;;5.05;2.45;;;;;;;4.96;100;95046.72;;;;
2019/12/25 00:02:04;;;;;;;5.05;2.45;;;;;;;4.96;100;95046.72;;;;
2019/12/25 00:03:05;;;;;;;5.05;2.45;;;;;;;4.96;100;95046.72;;;;
2019/12/25 00:04:06;;;;;;;5.05;2.45;;;;;;;4.96;100;95046.72;;;;
2019/12/25 00:05:07;;;;;;;6.650001;2.2;;;;;;;5.18;100;95052.53;;;;
2019/12/25 00:06:08;;;;;;;6.650001;2.2;;;;;;;5.18;100;95052.53;;;;
2019/12/25 00:07:10;;;;;;;6.650001;2.2;;;;;;;5.18;100;95052.53;;;;
2019/12/25 00:08:11;;;;;;;6.650001;2.2;;;;;;;5.18;100;95052.53;;;;
2019/12/25 00:09:12;;;;;;;6.650001;2.2;;;;;;;5.18;100;95052.53;;;;
2019/12/25 00:10:13;;;;;;;6.650001;2.2;;;;;;;5.18;100;95052.53;;;;
2019/12/25 00:11:15;;;;;;;6.650001;2.2;;;;;;;5.18;100;95052.53;;;;
2019/12/25 00:12:16;;;;;;;6.650001;2.2;;;;;;;5.18;100;95052.53;;;;
2019/12/25 00:13:17;;;;;;;6.650001;2.2;;;;;;;5.18;100;95052.53;;;;
2019/12/25 00:14:18;;;;;;;6.650001;2.2;;;;;;;5.18;100;95052.53;;;;
2019/12/25 00:15:19;;;;;;;6.650001;2.2;;;;;;;5.18;100;95052.53;;;;
2019/12/25 00:21:29;;;;;;;4.050001;2.3;;;;;;;5.49;100;95034.45;;;;
2019/12/25 00:22:30;;;;;;;4.050001;2.3;;;;;;;5.49;100;95034.45;;;;
2019/12/25 00:23:31;;;;;;;4.050001;2.3;;;;;;;5.49;100;95034.45;;;;
2019/12/25 00:24:32;;;;;;;4.050001;2.3;;;;;;;5.49;100;95034.45;;;;
2019/12/25 00:25:33;;;;;;;4.050001;2.3;;;;;;;5.49;100;95034.45;;;;
2019/12/25 00:26:34;;;;;;;6;1.9;;;;;;;5.65;100;95045.11;;;;
2019/12/25 00:27:35;;;;;;;6;1.9;;;;;;;5.65;100;95045.11;;;;
2019/12/25 00:28:36;;;;;;;6;1.9;;;;;;;5.65;100;95045.11;;;;
2019/12/25 00:29:38;;;;;;;6;1.9;;;;;;;5.65;100;95045.11;;;;
2019/12/25 00:30:39;;;;;;;6;1.9;;;;;;;5.65;100;95045.11;;;;
2019/12/25 00:31:40;;;;;;;6;1.9;;;;;;;5.65;100;95045.11;;;;
2019/12/25 00:32:41;;;;;;;6;1.9;;;;;;;5.65;100;95045.11;;;;
2019/12/25 00:33:42;;;;;;;6;1.9;;;;;;;5.65;100;95045.11;;;;
2019/12/25 00:34:43;;;;;;;6;1.9;;;;;;;5.65;100;95045.11;;;;
2019/12/25 00:35:44;;;;;;;6;1.9;;;;;;;5.65;100;95045.11;;;;
2019/12/25 00:36:46;;;;;;;5.25;2.35;;;;;;;5.83;100;95037.36;;;;
2019/12/25 00:37:47;;;;;;;5.25;2.35;;;;;;;5.83;100;95037.36;;;;
2019/12/25 00:38:48;;;;;;;5.25;2.35;;;;;;;5.83;100;95037.36;;;;
2019/12/25 00:39:49;;;;;;;5.25;2.35;;;;;;;5.83;100;95037.36;;;;
2019/12/25 00:40:50;;;;;;;5.25;2.35;;;;;;;5.83;100;95037.36;;;;
2019/12/25 00:41:52;;;;;;;5.25;2.35;;;;;;;5.83;100;95037.36;;;;
2019/12/25 00:42:53;;;;;;;5.25;2.35;;;;;;;5.83;100;95037.36;;;;
2019/12/25 00:43:54;;;;;;;5.25;2.35;;;;;;;5.83;100;95037.36;;;;
2019/12/25 00:44:55;;;;;;;5.25;2.35;;;;;;;5.83;100;95037.36;;;;
2019/12/25 00:45:56;;;;;;;5.25;2.35;;;;;;;5.83;100;95037.36;;;;
2019/12/25 00:46:57;;;;;;;5.25;2.35;;;;;;;5.83;100;95037.36;;;;
2019/12/25 00:47:58;;;;;;;4.900001;2.2;;;;;;;5.89;100;95038.25;;;;
2019/12/25 00:49:00;;;;;;;4.900001;2.2;;;;;;;5.89;100;95038.25;;;;
2019/12/25 00:50:01;;;;;;;4.900001;2.2;;;;;;;5.89;100;95038.25;;;;
2019/12/25 00:51:02;;;;;;;4.900001;2.2;;;;;;;5.89;100;95038.25;;;;
2019/12/25 00:52:04;;;;;;;4.900001;2.2;;;;;;;5.89;100;95038.25;;;;
2019/12/25 00:53:05;;;;;;;4.900001;2.2;;;;;;;5.89;100;95038.25;;;;
2019/12/25 00:54:06;;;;;;;4.900001;2.2;;;;;;;5.89;100;95038.25;;;;
2019/12/25 00:55:07;;;;;;;4.900001;2.2;;;;;;;5.89;100;95038.25;;;;
2019/12/25 00:56:08;;;;;;;4.900001;2.2;;;;;;;5.89;100;95038.25;;;;
2019/12/25 00:57:09;;;;;;;4.900001;2.2;;;;;;;5.89;100;95038.25;;;;
2019/12/25 00:58:10;;;;;;;4.100001;2;;;;;;;6.03;100;95048.78;;;;
2019/12/25 00:59:11;;;;;;;4.100001;2;;;;;;;6.03;100;95048.78;;;;
2019/12/25 01:00:13;;;;;;;4.100001;2;;;;;;;6.03;100;95048.78;;;;
2019/12/25 01:01:14;;;;;;;4.100001;2;;;;;;;6.03;100;95048.78;;;;
2019/12/25 01:02:15;;;;;;;4.100001;2;;;;;;;6.03;100;95048.78;;;;
2019/12/25 01:03:16;;;;;;;4.100001;2;;;;;;;6.03;100;95048.78;;;;
2019/12/25 01:04:17;;;;;;;4.100001;2;;;;;;;6.03;100;95048.78;;;;
2019/12/25 01:05:18;;;;;;;4.100001;2;;;;;;;6.03;100;95048.78;;;;
2019/12/25 01:06:20;;;;;;;4.100001;2;;;;;;;6.03;100;95048.78;;;;
2019/12/25 01:07:21;;;;;;;4.100001;2;;;;;;;6.03;100;95048.78;;;;
2019/12/25 01:08:22;;;;;;;4.100001;2;;;;;;;6.03;100;95048.78;;;;
2019/12/25 01:09:23;;;;;;;6.399999;2.1;;;;;;;6.06;100;95050.64;;;;
2019/12/25 01:10:24;;;;;;;6.399999;2.1;;;;;;;6.06;100;95050.64;;;;
2019/12/25 01:11:25;;;;;;;6.399999;2.1;;;;;;;6.06;100;95050.64;;;;
2019/12/25 01:12:27;;;;;;;6.399999;2.1;;;;;;;6.06;100;95050.64;;;;
2019/12/25 01:13:28;;;;;;;6.399999;2.1;;;;;;;6.06;100;95050.64;;;;
2019/12/25 01:14:29;;;;;;;6.399999;2.1;;;;;;;6.06;100;95050.64;;;;
2019/12/25 01:15:30;;;;;;;6.399999;2.1;;;;;;;6.06;100;95050.64;;;;
2019/12/25 01:16:31;;;;;;;6.399999;2.1;;;;;;;6.06;100;95050.64;;;;
2019/12/25 01:17:32;;;;;;;6.399999;2.1;;;;;;;6.06;100;95050.64;;;;
2019/12/25 01:18:33;;;;;;;6.399999;2.1;;;;;;;6.06;100;95050.64;;;;
2019/12/25 01:19:35;;;;;;;4.099999;1.8;;;;;;;6.1;100;95067.82;;;;
2019/12/25 01:20:36;;;;;;;4.099999;1.8;;;;;;;6.1;100;95067.82;;;;
2019/12/25 01:21:37;;;;;;;4.099999;1.8;;;;;;;6.1;100;95067.82;;;;
2019/12/25 01:22:38;;;;;;;4.099999;1.8;;;;;;;6.1;100;95067.82;;;;
2019/12/25 01:23:39;;;;;;;4.099999;1.8;;;;;;;6.1;100;95067.82;;;;
2019/12/25 01:24:40;;;;;;;4.099999;1.8;;;;;;;6.1;100;95067.82;;;;
2019/12/25 01:25:41;;;;;;;4.099999;1.8;;;;;;;6.1;100;95067.82;;;;
2019/12/25 01:26:42;;;;;;;4.099999;1.8;;;;;;;6.1;100;95067.82;;;;
2019/12/25 01:27:44;;;;;;;4.099999;1.8;;;;;;;6.1;100;95067.82;;;;
2019/12/25 01:28:45;;;;;;;4.099999;1.8;;;;;;;6.1;100;95067.82;;;;
2019/12/25 01:29:46;;;;;;;4.099999;1.8;;;;;;;6.1;100;95067.82;;;;
2019/12/25 01:30:47;;;;;;;5.85;1.85;;;;;;;6.08;100;95075.37;;;;
2019/12/25 01:31:48;;;;;;;5.85;1.85;;;;;;;6.08;100;95075.37;;;;
2019/12/25 01:32:49;;;;;;;5.85;1.85;;;;;;;6.08;100;95075.37;;;;
2019/12/25 01:33:51;;;;;;;5.85;1.85;;;;;;;6.08;100;95075.37;;;;
2019/12/25 01:34:52;;;;;;;5.85;1.85;;;;;;;6.08;100;95075.37;;;;
2019/12/25 01:35:53;;;;;;;5.85;1.85;;;;;;;6.08;100;95075.37;;;;
2019/12/25 01:36:54;;;;;;;5.85;1.85;;;;;;;6.08;100;95075.37;;;;
2019/12/25 01:37:55;;;;;;;5.85;1.85;;;;;;;6.08;100;95075.37;;;;
2019/12/25 01:38:56;;;;;;;5.85;1.85;;;;;;;6.08;100;95075.37;;;;
2019/12/25 01:39:58;;;;;;;5.85;1.85;;;;;;;6.08;100;95075.37;;;;
2019/12/25 01:40:59;;;;;;;3.45;1.8;;;;;;;6.11;100;95071.75;;;;
2019/12/25 01:42:00;;;;;;;3.45;1.8;;;;;;;6.11;100;95071.75;;;;
2019/12/25 01:43:01;;;;;;;3.45;1.8;;;;;;;6.11;100;95071.75;;;;
2019/12/25 01:44:02;;;;;;;3.45;1.8;;;;;;;6.11;100;95071.75;;;;
2019/12/25 01:45:03;;;;;;;3.45;1.8;;;;;;;6.11;100;95071.75;;;;
2019/12/25 01:46:05;;;;;;;3.45;1.8;;;;;;;6.11;100;95071.75;;;;
2019/12/25 01:47:06;;;;;;;3.45;1.8;;;;;;;6.11;100;95071.75;;;;
2019/12/25 01:48:07;;;;;;;3.45;1.8;;;;;;;6.11;100;95071.75;;;;
2019/12/25 01:49:08;;;;;;;3.45;1.8;;;;;;;6.11;100;95071.75;;;;
2019/12/25 01:50:10;;;;;;;3.45;1.8;;;;;;;6.11;100;95071.75;;;;
2019/12/25 01:51:11;;;;;;;7;2.2;;;;;;;6.06;100;95082.67;;;;
2019/12/25 01:52:12;;;;;;;7;2.2;;;;;;;6.06;100;95082.67;;;;
2019/12/25 01:53:13;;;;;;;7;2.2;;;;;;;6.06;100;95082.67;;;;
2019/12/25 01:54:14;;;;;;;7;2.2;;;;;;;6.06;100;95082.67;;;;
2019/12/25 01:55:15;;;;;;;7;2.2;;;;;;;6.06;100;95082.67;;;;
2019/12/25 01:56:16;;;;;;;7;2.2;;;;;;;6.06;100;95082.67;;;;
2019/12/25 01:57:18;;;;;;;7;2.2;;;;;;;6.06;100;95082.67;;;;
2019/12/25 01:58:19;;;;;;;7;2.2;;;;;;;6.06;100;95082.67;;;;
2019/12/25 01:59:20;;;;;;;7;2.2;;;;;;;6.06;100;95082.67;;;;
2019/12/25 02:00:21;;;;;;;7;2.2;;;;;;;6.06;100;95082.67;;;;
2019/12/25 02:01:22;;;;;;;7;2.2;;;;;;;6.06;100;95082.67;;;;
2019/12/25 02:02:24;;;;;;;7;2.2;;;;;;;6.06;100;95082.67;;;;
2019/12/25 02:03:25;;;;;;;7;2.2;;;;;;;6.06;100;95082.67;;;;
2019/12/25 02:04:26;;;;;;;7;2.2;;;;;;;6.06;100;95082.67;;;;
2019/12/25 02:05:27;;;;;;;7;2.2;;;;;;;6.06;100;95082.67;;;;
2019/12/25 02:06:29;;;;;;;7;2.2;;;;;;;6.06;100;95082.67;;;;
2019/12/25 02:07:30;;;;;;;7;2.2;;;;;;;6.06;100;95082.67;;;;
2019/12/25 02:08:31;;;;;;;7;2.2;;;;;;;6.06;100;95082.67;;;;
2019/12/25 02:09:32;;;;;;;7;2.2;;;;;;;6.06;100;95082.67;;;;
2019/12/25 02:10:33;;;;;;;7;2.2;;;;;;;6.06;100;95082.67;;;;
2019/12/25 02:11:34;;;;;;;7;2.2;;;;;;;6.06;100;95082.67;;;;
2019/12/25 02:12:36;;;;;;;7.7;2.05;;;;;;;5.99;100;95075.31;;;;
2019/12/25 02:13:37;;;;;;;7.7;2.05;;;;;;;5.99;100;95075.31;;;;
2019/12/25 02:14:38;;;;;;;7.7;2.05;;;;;;;5.99;100;95075.31;;;;
2019/12/25 02:15:39;;;;;;;7.7;2.05;;;;;;;5.99;100;95075.31;;;;
2019/12/25 02:16:41;;;;;;;7.7;2.05;;;;;;;5.99;100;95075.31;;;;
2019/12/25 02:17:42;;;;;;;7.7;2.05;;;;;;;5.99;100;95075.31;;;;
2019/12/25 02:18:43;;;;;;;7.7;2.05;;;;;;;5.99;100;95075.31;;;;
2019/12/25 02:19:45;;;;;;;7.7;2.05;;;;;;;5.99;100;95075.31;;;;
2019/12/25 02:20:46;;;;;;;7.7;2.05;;;;;;;5.99;100;95075.31;;;;
2019/12/25 02:21:47;;;;;;;7.7;2.05;;;;;;;5.99;100;95075.31;;;;
2019/12/25 02:22:49;;;;;;;7.7;2.05;;;;;;;5.99;100;95075.31;;;;
2019/12/25 02:23:50;;;;;;;5.350001;2;;;;;;;5.83;100;95084.24;;;;
2019/12/25 02:24:51;;;;;;;5.350001;2;;;;;;;5.83;100;95084.24;;;;
2019/12/25 02:25:52;;;;;;;5.350001;2;;;;;;;5.83;100;95084.24;;;;
2019/12/25 02:26:53;;;;;;;5.350001;2;;;;;;;5.83;100;95084.24;;;;
2019/12/25 02:27:55;;;;;;;5.350001;2;;;;;;;5.83;100;95084.24;;;;
2019/12/25 02:28:56;;;;;;;5.350001;2;;;;;;;5.83;100;95084.24;;;;
2019/12/25 02:29:57;;;;;;;5.350001;2;;;;;;;5.83;100;95084.24;;;;
2019/12/25 02:30:58;;;;;;;5.350001;2;;;;;;;5.83;100;95084.24;;;;
2019/12/25 02:31:59;;;;;;;5.350001;2;;;;;;;5.83;100;95084.24;;;;
2019/12/25 02:33:01;;;;;;;5.350001;2;;;;;;;5.83;100;95084.24;;;;
2019/12/25 02:34:02;;;;;;;5.549999;1.95;;;;;;;5.74;100;95082.26;;;;
2019/12/25 02:35:03;;;;;;;5.549999;1.95;;;;;;;5.74;100;95082.26;;;;
2019/12/25 02:36:05;;;;;;;5.549999;1.95;;;;;;;5.74;100;95082.26;;;;
2019/12/25 02:37:06;;;;;;;5.549999;1.95;;;;;;;5.74;100;95082.26;;;;
2019/12/25 02:38:07;;;;;;;5.549999;1.95;;;;;;;5.74;100;95082.26;;;;
2019/12/25 02:39:08;;;;;;;5.549999;1.95;;;;;;;5.74;100;95082.26;;;;
2019/12/25 02:40:09;;;;;;;5.549999;1.95;;;;;;;5.74;100;95082.26;;;;
2019/12/25 02:41:11;;;;;;;5.549999;1.95;;;;;;;5.74;100;95082.26;;;;
2019/12/25 02:42:12;;;;;;;5.549999;1.95;;;;;;;5.74;100;95082.26;;;;
2019/12/25 02:43:13;;;;;;;5.549999;1.95;;;;;;;5.74;100;95082.26;;;;
2019/12/25 02:44:14;;;;;;;5.549999;1.95;;;;;;;5.74;100;95082.26;;;;
2019/12/25 02:45:16;;;;;;;4.35;1.8;;;;;;;5.78;100;95075.96;;;;
2019/12/25 02:46:17;;;;;;;4.35;1.8;;;;;;;5.78;100;95075.96;;;;
2019/12/25 02:47:18;;;;;;;4.35;1.8;;;;;;;5.78;100;95075.96;;;;
2019/12/25 02:48:19;;;;;;;4.35;1.8;;;;;;;5.78;100;95075.96;;;;
2019/12/25 02:49:21;;;;;;;4.35;1.8;;;;;;;5.78;100;95075.96;;;;
2019/12/25 02:50:22;;;;;;;4.35;1.8;;;;;;;5.78;100;95075.96;;;;
2019/12/25 02:51:23;;;;;;;4.35;1.8;;;;;;;5.78;100;95075.96;;;;
2019/12/25 02:52:24;;;;;;;4.35;1.8;;;;;;;5.78;100;95075.96;;;;
2019/12/25 02:53:25;;;;;;;4.35;1.8;;;;;;;5.78;100;95075.96;;;;
2019/12/25 02:54:27;;;;;;;4.35;1.8;;;;;;;5.78;100;95075.96;;;;
2019/12/25 02:55:28;;;;;;;6.45;1.7;;;;;;;5.79;100;95088.75;;;;
2019/12/25 02:56:29;;;;;;;6.45;1.7;;;;;;;5.79;100;95088.75;;;;
2019/12/25 02:57:31;;;;;;;6.45;1.7;;;;;;;5.79;100;95088.75;;;;
2019/12/25 02:58:32;;;;;;;6.45;1.7;;;;;;;5.79;100;95088.75;;;;
2019/12/25 02:59:33;;;;;;;6.45;1.7;;;;;;;5.79;100;95088.75;;;;
2019/12/25 03:00:34;;;;;;;6.45;1.7;;;;;;;5.79;100;95088.75;;;;
2019/12/25 03:01:36;;;;;;;6.45;1.7;;;;;;;5.79;100;95088.75;;;;
2019/12/25 03:02:37;;;;;;;6.45;1.7;;;;;;;5.79;100;95088.75;;;;
2019/12/25 03:03:38;;;;;;;6.45;1.7;;;;;;;5.79;100;95088.75;;;;
2019/12/25 03:04:39;;;;;;;6.45;1.7;;;;;;;5.79;100;95088.75;;;;
2019/12/25 03:05:40;;;;;;;7.900002;1.7;;;;;;;5.91;100;95088.42;;;;
2019/12/25 03:06:42;;;;;;;7.900002;1.7;;;;;;;5.91;100;95088.42;;;;
2019/12/25 03:07:43;;;;;;;7.900002;1.7;;;;;;;5.91;100;95088.42;;;;
2019/12/25 03:08:45;;;;;;;7.900002;1.7;;;;;;;5.91;100;95088.42;;;;
2019/12/25 03:09:46;;;;;;;7.900002;1.7;;;;;;;5.91;100;95088.42;;;;
2019/12/25 03:10:47;;;;;;;7.900002;1.7;;;;;;;5.91;100;95088.42;;;;
2019/12/25 03:11:49;;;;;;;7.900002;1.7;;;;;;;5.91;100;95088.42;;;;
2019/12/25 03:12:50;;;;;;;7.900002;1.7;;;;;;;5.91;100;95088.42;;;;
2019/12/25 03:13:51;;;;;;;7.900002;1.7;;;;;;;5.91;100;95088.42;;;;
2019/12/25 03:14:52;;;;;;;7.900002;1.7;;;;;;;5.91;100;95088.42;;;;
2019/12/25 03:15:53;;;;;;;7.900002;1.7;;;;;;;5.91;100;95088.42;;;;
2019/12/25 03:16:55;;;;;;;3.85;1.5;;;;;;;5.99;100;95082.01;;;;
2019/12/25 03:17:56;;;;;;;3.85;1.5;;;;;;;5.99;100;95082.01;;;;
2019/12/25 03:18:57;;;;;;;3.85;1.5;;;;;;;5.99;100;95082.01;;;;
2019/12/25 03:19:58;;;;;;;3.85;1.5;;;;;;;5.99;100;95082.01;;;;
2019/12/25 03:20:59;;;;;;;3.85;1.5;;;;;;;5.99;100;95082.01;;;;
2019/12/25 03:22:01;;;;;;;3.85;1.5;;;;;;;5.99;100;95082.01;;;;
2019/12/25 03:23:02;;;;;;;3.85;1.5;;;;;;;5.99;100;95082.01;;;;
2019/12/25 03:24:03;;;;;;;3.85;1.5;;;;;;;5.99;100;95082.01;;;;
2019/12/25 03:25:04;;;;;;;3.85;1.5;;;;;;;5.99;100;95082.01;;;;
2019/12/25 03:26:05;;;;;;;3.85;1.5;;;;;;;5.99;100;95082.01;;;;
2019/12/25 03:27:07;;;;;;;5.3;1.5;;;;;;;6.05;100;95076.61;;;;
2019/12/25 03:28:08;;;;;;;5.3;1.5;;;;;;;6.05;100;95076.61;;;;
2019/12/25 03:29:09;;;;;;;5.3;1.5;;;;;;;6.05;100;95076.61;;;;
2019/12/25 03:30:10;;;;;;;5.3;1.5;;;;;;;6.05;100;95076.61;;;;
2019/12/25 03:31:12;;;;;;;5.3;1.5;;;;;;;6.05;100;95076.61;;;;
2019/12/25 03:32:13;;;;;;;5.3;1.5;;;;;;;6.05;100;95076.61;;;;
2019/12/25 03:33:14;;;;;;;5.3;1.5;;;;;;;6.05;100;95076.61;;;;
2019/12/25 03:34:15;;;;;;;5.3;1.5;;;;;;;6.05;100;95076.61;;;;
2019/12/25 03:35:16;;;;;;;5.3;1.5;;;;;;;6.05;100;95076.61;;;;
2019/12/25 03:36:17;;;;;;;5.3;1.5;;;;;;;6.05;100;95076.61;;;;
2019/12/25 03:37:19;;;;;;;5.3;1.5;;;;;;;6.05;100;95076.61;;;;
2019/12/25 03:38:20;;;;;;;5.3;1.5;;;;;;;6.05;100;95076.61;;;;
2019/12/25 03:39:21;;;;;;;5.3;1.5;;;;;;;6.05;100;95076.61;;;;
2019/12/25 03:40:22;;;;;;;5.3;1.5;;;;;;;6.05;100;95076.61;;;;
2019/12/25 03:41:23;;;;;;;5.3;1.5;;;;;;;6.05;100;95076.61;;;;
2019/12/25 03:42:24;;;;;;;5.3;1.5;;;;;;;6.05;100;95076.61;;;;
2019/12/25 03:43:26;;;;;;;5.3;1.5;;;;;;;6.05;100;95076.61;;;;
2019/12/25 03:44:27;;;;;;;5.3;1.5;;;;;;;6.05;100;95076.61;;;;
2019/12/25 03:45:32;;;;;;;5.3;1.5;;;;;;;6.05;100;95076.61;;;;
2019/12/25 03:46:35;;;;;;;5.3;1.5;;;;;;;6.05;100;95076.61;;;;
2019/12/25 03:47:37;;;;;;;5.3;1.5;;;;;;;6.05;100;95076.61;;;;
2019/12/25 03:48:43;;;;;;;6.05;1.65;;;;;;;6.02;100;95065.91;;;;
2019/12/25 03:49:47;;;;;;;6.05;1.65;;;;;;;6.02;100;95065.91;;;;
2019/12/25 03:50:49;;;;;;;6.05;1.65;;;;;;;6.02;100;95065.91;;;;
2019/12/25 03:51:50;;;;;;;6.05;1.65;;;;;;;6.02;100;95065.91;;;;
2019/12/25 03:52:52;;;;;;;6.05;1.65;;;;;;;6.02;100;95065.91;;;;
2019/12/25 03:53:55;;;;;;;6.05;1.65;;;;;;;6.02;100;95065.91;;;;
2019/12/25 03:54:58;;;;;;;6.05;1.65;;;;;;;6.02;100;95065.91;;;;
2019/12/25 03:55:59;;;;;;;6.05;1.65;;;;;;;6.02;100;95065.91;;;;
2019/12/25 03:57:00;;;;;;;6.05;1.65;;;;;;;6.02;100;95065.91;;;;
2019/12/25 03:58:02;;;;;;;6.05;1.65;;;;;;;6.02;100;95065.91;;;;
2019/12/25 03:59:03;;;;;;;5.95;1.6;;;;;;;5.85;100;95066.07;;;;
2019/12/25 04:00:04;;;;;;;5.95;1.6;;;;;;;5.85;100;95066.07;;;;
2019/12/25 04:01:05;;;;;;;5.95;1.6;;;;;;;5.85;100;95066.07;;;;
2019/12/25 04:02:06;;;;;;;5.95;1.6;;;;;;;5.85;100;95066.07;;;;
2019/12/25 04:03:08;;;;;;;5.95;1.6;;;;;;;5.85;100;95066.07;;;;
2019/12/25 04:04:09;;;;;;;5.95;1.6;;;;;;;5.85;100;95066.07;;;;
2019/12/25 04:05:10;;;;;;;5.95;1.6;;;;;;;5.85;100;95066.07;;;;
2019/12/25 04:06:11;;;;;;;5.95;1.6;;;;;;;5.85;100;95066.07;;;;
2019/12/25 04:07:12;;;;;;;5.95;1.6;;;;;;;5.85;100;95066.07;;;;
2019/12/25 04:08:14;;;;;;;5.95;1.6;;;;;;;5.85;100;95066.07;;;;
2019/12/25 04:09:15;;;;;;;5.95;1.6;;;;;;;5.85;100;95066.07;;;;
2019/12/25 04:10:16;;;;;;;3.9;1.55;;;;;;;5.76;100;95063.71;;;;
2019/12/25 04:11:17;;;;;;;3.9;1.55;;;;;;;5.76;100;95063.71;;;;
2019/12/25 04:12:18;;;;;;;3.9;1.55;;;;;;;5.76;100;95063.71;;;;
2019/12/25 04:13:20;;;;;;;3.9;1.55;;;;;;;5.76;100;95063.71;;;;
2019/12/25 04:14:21;;;;;;;3.9;1.55;;;;;;;5.76;100;95063.71;;;;
2019/12/25 04:15:22;;;;;;;3.9;1.55;;;;;;;5.76;100;95063.71;;;;
2019/12/25 04:16:23;;;;;;;3.9;1.55;;;;;;;5.76;100;95063.71;;;;
2019/12/25 04:17:24;;;;;;;3.9;1.55;;;;;;;5.76;100;95063.71;;;;
2019/12/25 04:18:26;;;;;;;3.9;1.55;;;;;;;5.76;100;95063.71;;;;
2019/12/25 04:19:27;;;;;;;3.9;1.55;;;;;;;5.76;100;95063.71;;;;
2019/12/25 04:20:28;;;;;;;6.4;1.65;;;;;;;5.64;100;95056.45;;;;
2019/12/25 04:21:29;;;;;;;6.4;1.65;;;;;;;5.64;100;95056.45;;;;
2019/12/25 04:22:30;;;;;;;6.4;1.65;;;;;;;5.64;100;95056.45;;;;
2019/12/25 04:23:31;;;;;;;6.4;1.65;;;;;;;5.64;100;95056.45;;;;
2019/12/25 04:24:32;;;;;;;6.4;1.65;;;;;;;5.64;100;95056.45;;;;
2019/12/25 04:25:34;;;;;;;6.4;1.65;;;;;;;5.64;100;95056.45;;;;
2019/12/25 04:26:35;;;;;;;6.4;1.65;;;;;;;5.64;100;95056.45;;;;
2019/12/25 04:27:36;;;;;;;6.4;1.65;;;;;;;5.64;100;95056.45;;;;
2019/12/25 04:28:37;;;;;;;6.4;1.65;;;;;;;5.64;100;95056.45;;;;
2019/12/25 04:29:38;;;;;;;6.4;1.65;;;;;;;5.64;100;95056.45;;;;
2019/12/25 04:30:39;;;;;;;6.4;1.65;;;;;;;5.64;100;95056.45;;;;
2019/12/25 04:31:40;;;;;;;4.999999;2.15;;;;;;;5.67;100;95058.7;;;;
2019/12/25 04:32:42;;;;;;;4.999999;2.15;;;;;;;5.67;100;95058.7;;;;
2019/12/25 04:33:43;;;;;;;4.999999;2.15;;;;;;;5.67;100;95058.7;;;;
2019/12/25 04:34:44;;;;;;;4.999999;2.15;;;;;;;5.67;100;95058.7;;;;
2019/12/25 04:35:45;;;;;;;4.999999;2.15;;;;;;;5.67;100;95058.7;;;;
2019/12/25 04:36:46;;;;;;;4.999999;2.15;;;;;;;5.67;100;95058.7;;;;
2019/12/25 04:37:48;;;;;;;4.999999;2.15;;;;;;;5.67;100;95058.7;;;;
2019/12/25 04:38:49;;;;;;;4.999999;2.15;;;;;;;5.67;100;95058.7;;;;
2019/12/25 04:39:50;;;;;;;4.999999;2.15;;;;;;;5.67;100;95058.7;;;;
2019/12/25 04:40:51;;;;;;;4.999999;2.15;;;;;;;5.67;100;95058.7;;;;
2019/12/25 04:41:52;;;;;;;3.299999;1.6;;;;;;;5.7;100;95060.55;;;;
2019/12/25 04:42:53;;;;;;;3.299999;1.6;;;;;;;5.7;100;95060.55;;;;
2019/12/25 04:43:55;;;;;;;3.299999;1.6;;;;;;;5.7;100;95060.55;;;;
2019/12/25 04:44:56;;;;;;;3.299999;1.6;;;;;;;5.7;100;95060.55;;;;
2019/12/25 04:45:57;;;;;;;3.299999;1.6;;;;;;;5.7;100;95060.55;;;;
2019/12/25 04:46:58;;;;;;;3.299999;1.6;;;;;;;5.7;100;95060.55;;;;
2019/12/25 04:47:59;;;;;;;3.299999;1.6;;;;;;;5.7;100;95060.55;;;;
2019/12/25 04:49:00;;;;;;;3.299999;1.6;;;;;;;5.7;100;95060.55;;;;
2019/12/25 04:50:01;;;;;;;3.299999;1.6;;;;;;;5.7;100;95060.55;;;;
2019/12/25 04:51:03;;;;;;;3.299999;1.6;;;;;;;5.7;100;95060.55;;;;
2019/12/25 04:52:04;;;;;;;5.3;1.8;;;;;;;5.81;100;95050.9;;;;
2019/12/25 04:53:05;;;;;;;5.3;1.8;;;;;;;5.81;100;95050.9;;;;
2019/12/25 04:54:06;;;;;;;5.3;1.8;;;;;;;5.81;100;95050.9;;;;
2019/12/25 04:55:07;;;;;;;5.3;1.8;;;;;;;5.81;100;95050.9;;;;
2019/12/25 04:56:08;;;;;;;5.3;1.8;;;;;;;5.81;100;95050.9;;;;
2019/12/25 04:57:09;;;;;;;5.3;1.8;;;;;;;5.81;100;95050.9;;;;
2019/12/25 04:58:11;;;;;;;5.3;1.8;;;;;;;5.81;100;95050.9;;;;
2019/12/25 04:59:12;;;;;;;5.3;1.8;;;;;;;5.81;100;95050.9;;;;
2019/12/25 05:00:13;;;;;;;5.3;1.8;;;;;;;5.81;100;95050.9;;;;
2019/12/25 05:01:14;;;;;;;5.3;1.8;;;;;;;5.81;100;95050.9;;;;
2019/12/25 05:02:15;;;;;;;5.3;1.8;;;;;;;5.81;100;95050.9;;;;
2019/12/25 05:03:16;;;;;;;5.4;1.7;;;;;;;5.86;100;95061.96;;;;
2019/12/25 05:04:17;;;;;;;5.4;1.7;;;;;;;5.86;100;95061.96;;;;
2019/12/25 05:05:19;;;;;;;5.4;1.7;;;;;;;5.86;100;95061.96;;;;
2019/12/25 05:06:20;;;;;;;5.4;1.7;;;;;;;5.86;100;95061.96;;;;
2019/12/25 05:07:21;;;;;;;5.4;1.7;;;;;;;5.86;100;95061.96;;;;
2019/12/25 05:08:22;;;;;;;5.4;1.7;;;;;;;5.86;100;95061.96;;;;
2019/12/25 05:09:23;;;;;;;5.4;1.7;;;;;;;5.86;100;95061.96;;;;
2019/12/25 05:10:24;;;;;;;5.4;1.7;;;;;;;5.86;100;95061.96;;;;
2019/12/25 05:11:25;;;;;;;5.4;1.7;;;;;;;5.86;100;95061.96;;;;
2019/12/25 05:12:27;;;;;;;5.4;1.7;;;;;;;5.86;100;95061.96;;;;
2019/12/25 05:13:28;;;;;;;6.05;1.9;;;;;;;5.93;100;95051.11;;;;
2019/12/25 05:14:29;;;;;;;6.05;1.9;;;;;;;5.93;100;95051.11;;;;
2019/12/25 05:15:30;;;;;;;6.05;1.9;;;;;;;5.93;100;95051.11;;;;
2019/12/25 05:16:31;;;;;;;6.05;1.9;;;;;;;5.93;100;95051.11;;;;
2019/12/25 05:17:32;;;;;;;6.05;1.9;;;;;;;5.93;100;95051.11;;;;
2019/12/25 05:18:33;;;;;;;6.05;1.9;;;;;;;5.93;100;95051.11;;;;
2019/12/25 05:19:35;;;;;;;6.05;1.9;;;;;;;5.93;100;95051.11;;;;
2019/12/25 05:20:36;;;;;;;6.05;1.9;;;;;;;5.93;100;95051.11;;;;
2019/12/25 05:21:37;;;;;;;6.05;1.9;;;;;;;5.93;100;95051.11;;;;
2019/12/25 05:22:38;;;;;;;6.05;1.9;;;;;;;5.93;100;95051.11;;;;
2019/12/25 05:23:40;;;;;;;6.05;1.9;;;;;;;5.93;100;95051.11;;;;
2019/12/25 05:24:41;;;;;;;5.599999;1.7;;;;;;;5.95;100;95059.25;;;;
2019/12/25 05:25:42;;;;;;;5.599999;1.7;;;;;;;5.95;100;95059.25;;;;
2019/12/25 05:26:43;;;;;;;5.599999;1.7;;;;;;;5.95;100;95059.25;;;;
2019/12/25 05:27:45;;;;;;;5.599999;1.7;;;;;;;5.95;100;95059.25;;;;
2019/12/25 05:28:46;;;;;;;5.599999;1.7;;;;;;;5.95;100;95059.25;;;;
2019/12/25 05:29:47;;;;;;;5.599999;1.7;;;;;;;5.95;100;95059.25;;;;
2019/12/25 05:30:48;;;;;;;5.599999;1.7;;;;;;;5.95;100;95059.25;;;;
2019/12/25 05:31:49;;;;;;;5.599999;1.7;;;;;;;5.95;100;95059.25;;;;
2019/12/25 05:32:50;;;;;;;5.599999;1.7;;;;;;;5.95;100;95059.25;;;;
2019/12/25 05:33:51;;;;;;;5.599999;1.7;;;;;;;5.95;100;95059.25;;;;
2019/12/25 05:34:52;;;;;;;4.099999;1.7;;;;;;;6.05;100;95059.19;;;;
2019/12/25 05:35:54;;;;;;;4.099999;1.7;;;;;;;6.05;100;95059.19;;;;
2019/12/25 05:36:55;;;;;;;4.099999;1.7;;;;;;;6.05;100;95059.19;;;;
2019/12/25 05:37:56;;;;;;;4.099999;1.7;;;;;;;6.05;100;95059.19;;;;
2019/12/25 05:38:57;;;;;;;4.099999;1.7;;;;;;;6.05;100;95059.19;;;;
2019/12/25 05:39:58;;;;;;;4.099999;1.7;;;;;;;6.05;100;95059.19;;;;
2019/12/25 05:40:59;;;;;;;4.099999;1.7;;;;;;;6.05;100;95059.19;;;;
2019/12/25 05:42:00;;;;;;;4.099999;1.7;;;;;;;6.05;100;95059.19;;;;
2019/12/25 05:43:01;;;;;;;4.099999;1.7;;;;;;;6.05;100;95059.19;;;;
2019/12/25 05:44:03;;;;;;;4.099999;1.7;;;;;;;6.05;100;95059.19;;;;
2019/12/25 05:45:04;;;;;;;4.099999;1.7;;;;;;;6.05;100;95059.19;;;;
2019/12/25 05:46:05;;;;;;;5.100001;1.8;;;;;;;6.07;100;95055.78;;;;
2019/12/25 05:47:06;;;;;;;5.100001;1.8;;;;;;;6.07;100;95055.78;;;;
2019/12/25 05:48:07;;;;;;;5.100001;1.8;;;;;;;6.07;100;95055.78;;;;
2019/12/25 05:49:08;;;;;;;5.100001;1.8;;;;;;;6.07;100;95055.78;;;;
2019/12/25 05:50:09;;;;;;;5.100001;1.8;;;;;;;6.07;100;95055.78;;;;
2019/12/25 05:51:11;;;;;;;5.100001;1.8;;;;;;;6.07;100;95055.78;;;;
2019/12/25 05:52:12;;;;;;;5.100001;1.8;;;;;;;6.07;100;95055.78;;;;
2019/12/25 05:53:13;;;;;;;5.100001;1.8;;;;;;;6.07;100;95055.78;;;;
2019/12/25 05:54:14;;;;;;;5.100001;1.8;;;;;;;6.07;100;95055.78;;;;
2019/12/25 05:55:15;;;;;;;5.100001;1.8;;;;;;;6.07;100;95055.78;;;;
2019/12/25 05:56:16;;;;;;;5.25;1.8;;;;;;;6.2;100;95079.02;;;;
2019/12/25 05:57:17;;;;;;;5.25;1.8;;;;;;;6.2;100;95079.02;;;;
2019/12/25 05:58:19;;;;;;;5.25;1.8;;;;;;;6.2;100;95079.02;;;;
2019/12/25 05:59:20;;;;;;;5.25;1.8;;;;;;;6.2;100;95079.02;;;;
2019/12/25 06:00:21;;;;;;;5.25;1.8;;;;;;;6.2;100;95079.02;;;;
2019/12/25 06:01:22;;;;;;;5.25;1.8;;;;;;;6.2;100;95079.02;;;;
2019/12/25 06:02:23;;;;;;;5.25;1.8;;;;;;;6.2;100;95079.02;;;;
2019/12/25 06:03:25;;;;;;;5.25;1.8;;;;;;;6.2;100;95079.02;;;;
2019/12/25 06:04:26;;;;;;;5.25;1.8;;;;;;;6.2;100;95079.02;;;;
2019/12/25 06:05:27;;;;;;;5.25;1.8;;;;;;;6.2;100;95079.02;;;;
2019/12/25 06:06:28;;;;;;;5.8;1.8;;;;;;;6.27;100;95080.22;;;;
2019/12/25 06:07:29;;;;;;;5.8;1.8;;;;;;;6.27;100;95080.22;;;;
2019/12/25 06:08:30;;;;;;;5.8;1.8;;;;;;;6.27;100;95080.22;;;;
2019/12/25 06:09:31;;;;;;;5.8;1.8;;;;;;;6.27;100;95080.22;;;;
2019/12/25 06:10:40;;;;;;;5.8;1.8;;;;;;;6.27;100;95080.22;;;;
2019/12/25 06:11:41;;;;;;;5.8;1.8;;;;;;;6.27;100;95080.22;;;;
2019/12/25 06:12:43;;;;;;;5.8;1.8;;;;;;;6.27;100;95080.22;;;;
2019/12/25 06:13:44;;;;;;;5.8;1.8;;;;;;;6.27;100;95080.22;;;;
2019/12/25 06:14:45;;;;;;;5.8;1.8;;;;;;;6.27;100;95080.22;;;;
2019/12/25 06:15:46;;;;;;;5.8;1.8;;;;;;;6.27;100;95080.22;;;;
2019/12/25 06:16:47;;;;;;;5.8;1.8;;;;;;;6.27;100;95080.22;;;;
2019/12/25 06:17:48;;;;;;;5.250001;1.7;;;;;;;6.33;100;95090.48;;;;
2019/12/25 06:18:49;;;;;;;5.250001;1.7;;;;;;;6.33;100;95090.48;;;;
2019/12/25 06:19:51;;;;;;;5.250001;1.7;;;;;;;6.33;100;95090.48;;;;
2019/12/25 06:20:52;;;;;;;5.250001;1.7;;;;;;;6.33;100;95090.48;;;;
2019/12/25 06:21:53;;;;;;;5.250001;1.7;;;;;;;6.33;100;95090.48;;;;
2019/12/25 06:22:54;;;;;;;5.250001;1.7;;;;;;;6.33;100;95090.48;;;;